createdAt,value
2023-05-11T00:00:08.439Z,44.30
2023-05-11T00:05:11.656Z,43.75
2023-05-11T00:10:13.599Z,45.31
2023-05-11T00:15:15.578Z,44.50
2023-05-11T00:20:18.363Z,43.17
2023-05-11T00:25:20.609Z,43.58
2023-05-11T00:37:16.092Z,43.19
2023-05-11T00:42:18.041Z,43.45
2023-05-11T00:47:20.119Z,42.69
2023-05-11T00:52:22.437Z,43.96
2023-05-11T00:57:24.301Z,43.05
2023-05-11T01:02:26.807Z,42.27
2023-05-11T01:07:33.233Z,42.67
2023-05-11T01:13:02.465Z,41.86
2023-05-11T01:18:24.864Z,42.50
2023-05-11T01:23:53.445Z,41.89
2023-05-11T01:29:20.681Z,42.10
2023-05-11T01:34:30.716Z,42.19
2023-05-11T01:39:37.280Z,42.02
2023-05-11T01:44:42.423Z,41.98
2023-05-11T01:49:45.528Z,42.23
2023-05-11T01:54:52.458Z,42.21
2023-05-11T01:59:56.722Z,41.62
2023-05-11T02:05:01.915Z,41.47
2023-05-11T02:10:06.487Z,42.58
2023-05-11T02:15:11.398Z,42.03
2023-05-11T02:20:15.151Z,42.63
2023-05-11T02:25:17.342Z,42.07
2023-05-11T02:30:19.904Z,42.12
2023-05-11T02:35:44.057Z,42.16
2023-05-11T02:40:49.312Z,42.73
2023-05-11T02:45:59.168Z,42.87
2023-05-11T02:51:06.210Z,43.55
2023-05-11T02:56:13.441Z,43.00
2023-05-11T03:01:16.743Z,41.91
2023-05-11T03:06:18.975Z,41.72
2023-05-11T03:11:22.149Z,41.51
2023-05-11T03:16:25.029Z,41.45
2023-05-11T03:21:27.593Z,41.63
2023-05-11T03:26:30.376Z,41.27
2023-05-11T03:31:32.654Z,41.40
2023-05-11T03:36:35.773Z,40.78
2023-05-11T03:41:41.027Z,40.63
2023-05-11T03:46:45.914Z,40.69
2023-05-11T03:51:49.115Z,42.10
2023-05-11T03:56:51.885Z,41.31
2023-05-11T04:01:55.098Z,41.84
2023-05-11T04:06:57.971Z,41.21
2023-05-11T04:12:00.852Z,41.53
2023-05-11T04:17:04.187Z,41.45
2023-05-11T04:22:06.129Z,41.40
2023-05-11T04:27:08.125Z,41.52
2023-05-11T04:32:10.177Z,41.86
2023-05-11T04:37:12.177Z,41.66
2023-05-11T04:42:14.289Z,41.44
2023-05-11T04:47:17.837Z,41.95
2023-05-11T04:52:21.621Z,41.61
2023-05-11T04:57:24.880Z,41.90
2023-05-11T05:02:26.872Z,41.62
2023-05-11T05:07:28.894Z,41.44
2023-05-11T05:12:32.379Z,40.97
2023-05-11T05:17:34.270Z,40.79
2023-05-11T05:22:36.103Z,40.96
2023-05-11T05:27:37.892Z,41.17
2023-05-11T05:32:43.879Z,41.39
2023-05-11T05:37:45.834Z,41.26
2023-05-11T05:42:47.995Z,41.72
2023-05-11T05:47:54.430Z,41.17
2023-05-11T05:52:57.149Z,41.62
2023-05-11T05:58:00.798Z,42.08
2023-05-11T06:03:02.788Z,41.94
2023-05-11T06:08:10.488Z,41.88
2023-05-11T06:13:13.645Z,41.09
2023-05-11T06:18:17.342Z,41.13
2023-05-11T06:23:19.764Z,45.11
2023-05-11T06:28:24.464Z,45.90
2023-05-11T06:33:30.213Z,47.41
2023-05-11T06:38:33.274Z,51.73
2023-05-11T06:43:35.365Z,51.98
2023-05-11T06:48:37.889Z,48.60
2023-05-11T06:53:39.696Z,47.58
2023-05-11T06:58:41.842Z,47.16
2023-05-11T07:03:43.565Z,45.41
2023-05-11T07:08:45.419Z,44.07
2023-05-11T07:13:47.302Z,42.58
2023-05-11T07:18:49.582Z,40.99
2023-05-11T07:23:51.384Z,47.11
2023-05-11T07:28:53.245Z,51.26
2023-05-11T07:33:55.019Z,57.09
2023-05-11T07:38:57.899Z,58.39
2023-05-11T07:44:01.008Z,59.85
2023-05-11T07:49:14.419Z,57.44
2023-05-11T07:54:21.730Z,52.10
2023-05-11T07:59:23.761Z,54.40
2023-05-11T08:04:27.577Z,49.49
2023-05-11T08:09:29.612Z,48.37
2023-05-11T08:14:32.256Z,51.06
2023-05-11T08:19:34.134Z,46.67
2023-05-11T08:24:35.995Z,47.55
2023-05-11T08:29:37.732Z,47.35
2023-05-11T08:34:39.602Z,49.51
2023-05-11T08:39:47.286Z,51.25
2023-05-11T08:44:50.643Z,53.63
2023-05-11T08:49:53.214Z,55.19
2023-05-11T08:54:55.071Z,50.49
2023-05-11T08:59:56.954Z,52.77
2023-05-11T09:04:59.545Z,49.79
2023-05-11T09:10:01.592Z,53.75
2023-05-11T09:15:04.466Z,53.04
2023-05-11T09:20:09.367Z,51.33
2023-05-11T09:25:13.904Z,45.79
2023-05-11T09:35:28.518Z,51.36
2023-05-11T09:40:33.932Z,51.24
2023-05-11T09:45:41.637Z,52.74
2023-05-11T09:50:43.943Z,54.39
2023-05-11T09:55:53.478Z,55.21
2023-05-11T10:00:55.293Z,52.60
2023-05-11T10:05:59.689Z,53.78
2023-05-11T10:11:06.760Z,51.65
2023-05-11T10:16:10.264Z,55.69
2023-05-11T10:21:15.375Z,51.07
2023-05-11T10:26:17.716Z,53.68
2023-05-11T10:31:24.130Z,50.71
2023-05-11T10:36:27.035Z,49.92
2023-05-11T10:41:34.476Z,45.80
2023-05-11T10:47:07.169Z,43.29
2023-05-11T10:52:08.938Z,40.11
2023-05-11T10:57:20.254Z,39.45
2023-05-11T11:02:22.722Z,41.63
2023-05-11T11:07:24.570Z,40.50
2023-05-11T11:12:29.414Z,40.73
2023-05-11T11:17:36.275Z,43.17
2023-05-11T11:22:38.733Z,43.01
2023-05-11T11:27:40.691Z,42.23
2023-05-11T11:32:44.776Z,39.86
2023-05-11T11:38:04.397Z,41.69
2023-05-11T11:43:24.805Z,42.20
2023-05-11T11:48:35.400Z,44.43
2023-05-11T11:53:37.449Z,41.74
2023-05-11T11:58:45.145Z,46.26
2023-05-11T12:03:56.637Z,46.34
2023-05-11T12:08:58.593Z,46.75
2023-05-11T12:14:01.922Z,46.49
2023-05-11T12:19:04.319Z,46.57
2023-05-11T12:24:07.143Z,47.12
2023-05-11T12:29:14.126Z,47.34
2023-05-11T12:34:24.298Z,45.41
2023-05-11T12:39:27.281Z,43.66
2023-05-11T12:44:29.535Z,43.90
2023-05-11T12:49:31.436Z,43.36
2023-05-11T12:54:38.218Z,40.08
2023-05-11T12:59:40.699Z,39.57
2023-05-11T13:04:43.651Z,40.32
2023-05-11T13:09:58.355Z,39.59
2023-05-11T13:15:13.776Z,39.53
2023-05-11T13:20:24.473Z,40.82
2023-05-11T13:25:26.216Z,38.67
2023-05-11T13:30:28.336Z,38.74
2023-05-11T13:35:30.198Z,39.03
2023-05-11T13:40:31.999Z,37.97
2023-05-11T13:45:33.951Z,38.34
2023-05-11T13:50:36.003Z,39.60
2023-05-11T13:55:41.058Z,39.84
2023-05-11T14:00:48.084Z,39.95
2023-05-11T14:05:55.214Z,40.42
2023-05-11T14:10:56.935Z,39.89
2023-05-11T14:15:58.777Z,37.89
2023-05-11T14:21:00.826Z,38.89
2023-05-11T14:26:03.837Z,37.37
2023-05-11T14:31:05.981Z,35.32
2023-05-11T14:36:08.564Z,41.83
2023-05-11T14:41:10.386Z,40.88
2023-05-11T14:46:12.376Z,40.95
2023-05-11T14:51:14.362Z,39.82
2023-05-11T14:56:16.508Z,37.76
2023-05-11T15:01:18.321Z,37.85
2023-05-11T15:06:23.511Z,36.62
2023-05-11T15:11:26.043Z,46.02
2023-05-11T15:16:28.061Z,48.34
2023-05-11T15:21:29.911Z,44.57
2023-05-11T15:26:31.700Z,41.57
2023-05-11T15:31:33.680Z,40.34
2023-05-11T15:36:35.448Z,39.20
2023-05-11T15:41:37.258Z,38.67
2023-05-11T15:46:39.195Z,38.48
2023-05-11T15:51:41.049Z,39.12
2023-05-11T15:56:43.774Z,38.35
2023-05-11T16:01:45.786Z,39.34
2023-05-11T16:06:47.799Z,39.79
2023-05-11T16:11:49.790Z,39.17
2023-05-11T16:16:51.999Z,40.79
2023-05-11T16:21:53.820Z,41.58
2023-05-11T16:26:56.198Z,41.02
2023-05-11T16:31:58.162Z,39.51
2023-05-11T16:36:59.971Z,39.55
2023-05-11T16:42:01.764Z,37.86
2023-05-11T16:47:03.892Z,38.24
2023-05-11T16:52:06.124Z,40.72
2023-05-11T16:57:07.940Z,42.23
2023-05-11T17:02:09.869Z,39.77
2023-05-11T17:07:14.912Z,39.08
2023-05-11T17:12:17.147Z,39.76
2023-05-11T17:17:18.934Z,38.96
2023-05-11T17:22:20.818Z,40.11
2023-05-11T17:27:22.783Z,39.78
2023-05-11T17:32:24.787Z,39.66
2023-05-11T17:37:31.908Z,40.73
2023-05-11T17:42:34.855Z,40.61
2023-05-11T17:47:36.747Z,39.60
2023-05-11T17:52:38.498Z,38.88
2023-05-11T17:57:41.259Z,38.72
2023-05-11T18:02:45.545Z,38.62
2023-05-11T18:07:48.128Z,37.98
2023-05-11T18:12:49.958Z,38.53
2023-05-11T18:17:52.404Z,39.60
2023-05-11T18:22:54.207Z,40.98
2023-05-11T18:27:56.225Z,41.01
2023-05-11T18:32:58.363Z,40.87
2023-05-11T18:38:02.140Z,41.87
2023-05-11T18:43:04.393Z,42.00
2023-05-11T18:48:06.634Z,41.57
2023-05-11T18:53:08.507Z,40.91
2023-05-11T18:58:10.416Z,40.95
2023-05-11T19:03:14.530Z,40.26
2023-05-11T19:08:16.669Z,40.19
2023-05-11T19:13:18.942Z,40.73
2023-05-11T19:18:20.839Z,40.96
2023-05-11T19:23:22.714Z,40.73
2023-05-11T19:28:24.694Z,41.72
2023-05-11T19:33:26.577Z,41.18
2023-05-11T19:38:28.508Z,40.42
2023-05-11T19:43:30.312Z,41.63
2023-05-11T19:48:32.190Z,41.31
2023-05-11T19:53:34.130Z,41.18
2023-05-11T19:58:35.987Z,41.21
2023-05-11T20:03:37.837Z,43.31
2023-05-11T20:08:39.761Z,43.57
2023-05-11T20:13:42.404Z,42.81
2023-05-11T20:18:44.342Z,41.62
2023-05-11T20:23:46.197Z,42.10
2023-05-11T20:28:47.959Z,43.64
2023-05-11T20:38:54.531Z,42.75
2023-05-11T20:43:56.311Z,41.68
2023-05-11T20:48:58.175Z,45.83
2023-05-11T20:53:59.939Z,44.11
2023-05-11T20:59:01.684Z,43.90
2023-05-11T21:04:03.454Z,43.34
2023-05-11T21:09:05.295Z,42.32
2023-05-11T21:14:07.076Z,42.52
2023-05-11T21:19:09.198Z,42.66
2023-05-11T21:24:11.326Z,43.82
2023-05-11T21:29:13.169Z,43.69
2023-05-11T21:34:14.929Z,43.11
2023-05-11T21:39:16.795Z,42.39
2023-05-11T21:44:20.131Z,42.26
2023-05-11T21:49:21.973Z,42.18
2023-05-11T21:54:23.824Z,41.36
2023-05-11T21:59:27.479Z,40.92
2023-05-11T22:04:30.393Z,41.22
2023-05-11T22:09:32.124Z,41.03
2023-05-11T22:14:33.915Z,40.38
2023-05-11T22:19:35.734Z,41.60
2023-05-11T22:24:37.738Z,41.63
2023-05-11T22:29:39.556Z,42.05
2023-05-11T22:34:41.374Z,41.05
2023-05-11T22:39:43.132Z,41.60
2023-05-11T22:44:44.911Z,41.34
2023-05-11T22:49:46.923Z,41.73
2023-05-11T22:54:54.593Z,42.94
2023-05-11T22:59:56.415Z,42.20
2023-05-11T23:04:58.450Z,42.14
2023-05-11T23:10:00.246Z,42.98
2023-05-11T23:15:02.184Z,42.82
2023-05-11T23:20:04.824Z,42.35
2023-05-11T23:25:07.019Z,42.32
2023-05-11T23:30:09.130Z,41.85
2023-05-11T23:35:11.887Z,41.57
2023-05-11T23:40:13.735Z,41.86
2023-05-11T23:45:15.553Z,41.99
2023-05-11T23:50:18.339Z,42.52
2023-05-11T23:55:20.430Z,41.53
